Record high temperature 107.1°F Record low temperature 10.6°F Record high gust 49.5 mph Record high average 28.3 mph Record daily rain 11.65 in. Record low windchill 2.7°F Record high barometer 30.818 in. Record low barometer 29.078 in.
Daily high pressure 30.046 in. Daily low pressure 30.006 in. Daily low windchill 61.0°F Daily high heat index 68.1°F Daily high gust speed 4.0 mph NE Daily high average speed 2.4 mph ENE
On the Greenway Weather data
LAST READING AT TIME: 3:14 AM DATE: May 28 2017, time of next update: 3:15 am
Current WeatherNight time/Dry/Clear skies Current Temperature 62.2°F (16.8°C), Apparent temp 63.7°F
Maximum Temperature (since midnight)68.1°F at: 12:00 AM Minimum Temperature (since midnight)61.0°F at: 2:25 AM
Average windspeed (ten minute)0.9 mph Wind Direction (ten minute)ENE (68°)
Windchill Temperature 62.2°F Maximum Gust (last hour)4.0 mph at: 2:38AM
Maximum Gust (since midnight)4.0 mph at: 2:38 AM Maximum 1 minute average (since midnight)2.4 mph at: 2:38 AM
Rainfall (last hour)0.00 in. (0.0 mm) Rainfall (since midnight)0.00 in. (0.0 mm) ---
Rainfall This month 1.69 in. (42.9 mm) Rainfall To date this year 54.25 in. (1377.9 mm)
Maximum rain per minute (last hour)0.00 in/min Maximum rain per hour (last 6 hours)0.00 in/hour
Yesterdays rainfall 0.00 in DewPoint 56.6°F (Wet Bulb :59.0°F )
Humidity 82 %, Humidex 67.9°F Barometer corrected to msl30.046 in. (1017.5 hPa)
Pressure change +0.01 in. (last hour) Trend (last hour)STEADY
Pressure change (last 12 hours)+0.06 in Pressure change (last 6 hours)+0.07 in
Current Indoor Temp. 80.8°F
Current Indoor Hum. 33%
Current Solar 0 W/Mē
Maximum solar (since midnight) 0 W/Mē Minimum solar (since midnight)0 W/Mē
Current 00:00 hours of sunshine today, current sky: Night time/Dry/Clear skies
Sunshine hours for the year: 00:00 hrs Sunshine hours for the month: 00:00 hrs
Current evapotranspiration 0.03 inches per day. Yesterday's reading 0.11

This page is updated from recent data collected by a DAVIS VANTAGE PRO weather station Use the Reload or Refresh facility on your browser to retrieve the latest data.


Click here for the last 24 hour graph
Click here for the last 48 hour graph
Click here for the last 72 hour graph
Click here for the month to date graph


Weather report/warning/Metars

Expires:201705281200;;324129
FPUS56 KPQR 280450 CCA
ZFPPQR

Zone Forecasts for Northwest Oregon and Southwest Washington...CORRECTED
National Weather Service Portland Oregon
950 PM PDT Sat May 27 2017

Spot Temperatures are for Tonight, Sunday, Sunday Night, Memorial
Day, Monday Night, and Tuesday.


ORZ006-WAZ039-281200-
Greater Portland Metro Area-Greater Vancouver Area-
Including the cities of Hillsboro, Portland, Wilsonville, 
Oregon City, Gresham, Troutdale, Vancouver, Battle Ground, 
Ridgefield, Washougal, Yacolt, and Amboy
950 PM PDT Sat May 27 2017

.TONIGHT...Clear. Lows 55 to 60. Light wind. 
.SUNDAY...Sunny. Highs 85 to 90. Light wind, becoming northwest 5 to
15 mph later in the afternoon.
.SUNDAY NIGHT...Clear in the evening, then partly cloudy. Lows
around 55. Northwest wind 5 to 10 mph. 
.MEMORIAL DAY...Areas of morning low clouds, otherwise partly 
cloudy. Highs 80 to 85. Light wind early, then northwest 5 to 10 mph.
.MONDAY NIGHT...Partly cloudy in the evening, then mostly cloudy. A
20 percent chance of showers. Lows 55 to 60. Northwest wind 5 to
10 mph. 
.TUESDAY...Partly sunny. Chance of showers and a slight chance of
thunderstorms in the afternoon. Highs around 75. Chance of
precipitation 40 percent. 
.TUESDAY NIGHT...Mostly cloudy. Chance of showers and a slight
chance of thunderstorms in the evening, then a chance of showers. 
Lows 55 to 60. Chance of precipitation 50 percent. 
.WEDNESDAY...Mostly cloudy with a 50 percent chance of showers.
Highs 65 to 70. 
.WEDNESDAY NIGHT...Mostly cloudy. A 40 percent chance of showers. 
Lows around 50. 
.THURSDAY...Partly sunny with a 20 percent chance of showers. Highs
around 70. 
.THURSDAY NIGHT...Partly cloudy with a 20 percent chance of showers.
Lows 50 to 55. 
.FRIDAY...Partly cloudy with a 20 percent chance of showers. Highs
around 70. 
.FRIDAY NIGHT...Partly cloudy. A 20 percent chance of showers in the
evening. Lows around 50. 
.SATURDAY...Partly cloudy. Highs 70 to 75. 

&&
                    TEMPERATURE           
Portland          58  89  58  85  59  74
Hillsboro         53  88  56  84  57  74

$$
=


PORTLAND-HILLSBORO AIRPORT, OR, United States (KHIO) 45-33N 122-57W 68M
May 28, 2017 - 05:53 AM EDT / 2017.05.28 0953 UTC
Wind: Calm:0
Visibility: 10 mile(s):0
Sky conditions: clear
Temperature: 57.9 F (14.4 C)
Dew Point: 54.0 F (12.2 C)
Relative Humidity: 86%
Pressure (altimeter): 30.05 in. Hg (1017 hPa)
ob: KHIO 280953Z 00000KT 10SM CLR 14/12 A3005 RMK AO2 SLP173 T01440122
cycle: 10
PORTLAND INTERNATIONAL  AIRPORT, OR, United States (KPDX) 45-35N 122-36W 7M
May 28, 2017 - 05:53 AM EDT / 2017.05.28 0953 UTC
Wind: from the WNW (300 degrees) at 5 MPH (4 KT):0
Visibility: 10 mile(s):0
Sky conditions: clear
Temperature: 61.0 F (16.1 C)
Dew Point: 53.1 F (11.7 C)
Relative Humidity: 75%
Pressure (altimeter): 30.06 in. Hg (1017 hPa)
ob: KPDX 280953Z 30004KT 10SM CLR 16/12 A3006 RMK AO2 SLP179 T01610117 
cycle: 10
PORTLAND-TROUTDALE AIRPORT, OR, United States (KTTD) 45-33N 122-25W 14M
May 28, 2017 - 05:53 AM EDT / 2017.05.28 0953 UTC
Wind: from the E (100 degrees) at 3 MPH (3 KT):0
Visibility: 10 mile(s):0
Sky conditions: clear
Temperature: 57.9 F (14.4 C)
Dew Point: 52.0 F (11.1 C)
Relative Humidity: 80%
Pressure (altimeter): 30.06 in. Hg (1017 hPa)
ob: KTTD 280953Z AUTO 10003KT 10SM CLR 14/11 A3006 RMK AO2 SLP178 T01440111
cycle: 10
MCMINNVILLE MUNICIPAL AIRPORT , OR, United States (KMMV) 45-12N 123-08W 48M
May 28, 2017 - 05:53 AM EDT / 2017.05.28 0953 UTC
Wind: from the SW (230 degrees) at 10 MPH (9 KT):0
Visibility: 10 mile(s):0
Sky conditions: clear
Temperature: 53.1 F (11.7 C)
Dew Point: 48.9 F (9.4 C)
Relative Humidity: 85%
Pressure (altimeter): 30.08 in. Hg (1018 hPa)
ob: KMMV 280953Z AUTO 23009KT 10SM CLR 12/09 A3008 RMK AO2 SLP186 T01170094
cycle: 10
SALEM MCNARY FIELD, OR, United States (KSLE) 44-54N 123-00W 59M
May 28, 2017 - 05:56 AM EDT / 2017.05.28 0956 UTC
Wind: from the WSW (250 degrees) at 3 MPH (3 KT):0
Visibility: 10 mile(s):0
Sky conditions: clear
Temperature: 55.0 F (12.8 C)
Dew Point: 50.0 F (10.0 C)
Relative Humidity: 83%
Pressure (altimeter): 30.08 in. Hg (1018 hPa)
ob: KSLE 280956Z AUTO 25003KT 10SM CLR 13/10 A3008 RMK AO2 SLP184 T01280100
cycle: 10
REDMOND ROBERTS FIELD, OR, United States (KRDM) 44-15N 121-08W
May 28, 2017 - 05:56 AM EDT / 2017.05.28 0956 UTC
Wind: from the SSE (160 degrees) at 6 MPH (5 KT):0
Visibility: 10 mile(s):0
Sky conditions: clear
Temperature: 46.9 F (8.3 C)
Dew Point: 32.0 F (0.0 C)
Relative Humidity: 55%
Pressure (altimeter): 30.15 in. Hg (1020 hPa)
ob: KRDM 280956Z AUTO 16005KT 10SM CLR 08/00 A3015 RMK AO2 SLP191 T00830000
cycle: 10

Date: 5/28/2017
Sunrise at:
05:28 am

Sunset at:
08:48 pm

Moonrise at:
08:40 am 05/28/17

Moonset at:
10:54 pm 05/27/17

First Quarter  June 1 2017
Full moon  June 9 2017
Last QuarterJune 17 2017
New moon June 24 2017
Moon age: 2 days,21 hours,11 minutes,9%
Hours of possible daylight today was 15:20:00



Use the RELOAD facility on your browser to retrieve the latest data.

Click here for current Fire weather info
Click here for the daily CLIMATOLOGICAL SUMMARY
Click here for a daily update of the averages/extremes to date for the month




Created by "Weather Display" software version 10.37R at this start time/date 5:42:06 PM 2/5/2017




On The Greenway Weather Web Site

 
 
HELP US OUT
Help us keep this weather station on the web. for the Tigard / Portland internet users to use. If you would like to help, click the donate button below
 
This site is purely funded by donations and by myself (Ray Cooper)
Anything you can do will help keep this station on the net
Average cost per year is $665 to publish and host this site excluding the cost of the weather equipment
Buyastrostuff.com is kind enough to host our DNS and email at no cost.
THANKS GUYS & Gals for helping
Have a Question,or just want to talk. Contact me at:
Ray Cooper @ Buyastrostuff.com
 

Weather Underground PWS KORTIGAR12 Weather Underground PWS KORTIGAR12